Other Surface Observations
Issued by NWS Great Falls, MT

Home | Current Version | Previous Version | Text Only | Print | Product List | Glossary On
Versions: 1 2 3 4 5 6 7 8 9 10 11 12 13 14 15 16 17 18 19 20 21 22 23 24 25 26 27 28 29 30 31 32 33 34 35 36 37 38 39 40 41 42 43 44 45 46 47 48 49 50
000
SXUS55 KTFX 280029
OSOTFX
AREA AWOS OBSERVATIONS
NATIONAL WEATHER SERVICE GREAT FALLS MT
0629 PM MDT SAT AUG 27 2016

METAR KPO1 280030Z AUTO 17004KT 10SM 29/06 A2974 RMK POPLAR
METAR K1S3 280030Z AUTO 18009KT 10SM 29/03 A2978 RMK FORSYTH
METAR KS71 280030Z AUTO 18006KT 10SM 28/06 A2966 RMK CHINOOK
METAR K38S 280030Z AUTO 22007KT 10SM 27/02 A2988 RMK DEER LODGE
METAR K6S5 280030Z AUTO 26007KT 10SM 28/04 A2981 RMK HAMILTON
METAR KS59 280030Z AUTO 17004KT 10SM 28/04 A2971 RMK LIBBY
METAR K88M 280030Z AUTO 00000KT 10SM 26/05 A2972 RMK EUREKA



USA.gov is the U.S. government's official web portal to all federal, state and local government web resources and services.